Vores vejrinfo findes også på:

UK Metoffice

European Weather Network

Weather Underground



Select another period ( hide this area )

Enheder Periode Custom range Directly to
Metrisk Engelsk Begge
Daglig Ugentlig Månedlig Årlig
use both date-selectors for a custom range
previous Dag
With this date

WeatherUnderground graphs for this period ( click here )


Daglig Sum for fredag Feb 28 2020
Klokken Temp. ( °C ) Dew pt. ( °C ) Vind fra ( km/h ) fra Vindstød ( km/h ) Lufttryk ( hPa ) Humid.( % ) Rainrate ( cm )
Høj4,3 2,5 30,6 VNV ( 172/301 ) 40,2 1006,0 92 0,50
Gennemsnitlig3,0 1,4 3,4 vindstille #57/89 16,0 1003,4 89 0,80
Lav2,1 0,4 -   0,0 1000,6 86 -
Daglig Tabular details for fredag Feb 28 2020
Klokken Temp. ( °C ) Dew pt. ( °C ) Vind fra ( km/h ) fra Vindstød ( km/h ) Lufttryk ( hPa ) Humid.( % ) Rainrate ( cm )
00:00 3,1 1,9   vindstille 12,9 1000,6 92 0,50
00:05 3,1 1,8   vindstille 14,5 1000,6 91 0,50
00:10 3,1 1,8   vindstille 14,5 1000,9 91 0,30
00:15 3,1 1,8   vindstille 11,3 1000,9 91 0,30
00:20 3,0 1,7 12,9 VNV   1001,2 91 0,30
00:25 3,0 1,7   vindstille 16,1 1001,2 91 0,30
00:30 3,0 1,7   vindstille 16,1 1001,2 91 0,30
00:35 2,9 1,6   vindstille 16,1 1001,2 91 -
00:40 2,9 1,6   vindstille 11,3 1001,2 91 -
00:45 2,8 1,5   vindstille 11,3 1001,2 91 -
00:50 2,8 1,5   vindstille   1001,6 91 -
00:55 2,7 1,4   vindstille   1001,9 91 -
01:00 2,6 1,3   vindstille   1001,6 91 -
01:05 2,5 1,2   vindstille   1001,9 91 -
01:10 2,4 1,1   vindstille   1001,9 91 -
01:15 2,4 1,1   vindstille   1001,9 91 -
01:20 2,4 1,1   vindstille   1001,9 91 -
01:25 2,3 1,0   vindstille   1001,9 91 -
01:30 2,2 0,9   vindstille   1001,9 91 -
01:35 2,1 0,8   vindstille   1002,3 91 -
01:40 2,1 0,8   vindstille   1002,3 91 -
01:45 2,2 0,9   vindstille   1002,3 91 -
01:50 2,3 1,0   vindstille   1002,3 91 -
01:55 2,4 1,1   vindstille   1002,3 91 -
02:00 2,6 1,3   vindstille   1002,3 91 -
02:05 2,6 1,3   vindstille 8,0 1002,3 91 -
02:10 2,5 1,0   vindstille 8,0 1002,3 90 -
02:15 2,4 0,9   vindstille 8,0 1002,6 90 -
02:20 2,4 0,9   vindstille   1002,6 90 -
02:25 2,4 0,9   vindstille   1002,6 90 -
02:30 2,7 1,2   vindstille 3,2 1002,6 90 -
02:35 3,0 1,5 6,4 VNV 3,2 1002,6 90 -
02:40 3,1 1,5   vindstille 14,5 1002,9 89 -
02:45 3,0 1,4 8,0 VNV 17,7 1002,9 89 -
02:50 3,1 1,3   vindstille 17,7 1002,9 88 -
02:55 3,1 1,3 3,2 VNV 20,9 1002,9 88 -
03:00 3,3 1,3 14,5 VNV 20,9 1002,9 87 -
03:05 3,3 1,5 8,0 VSV 20,9 1002,9 88 -
03:10 3,1 1,3   vindstille 25,7 1002,9 88 -
03:15 2,9 1,1   vindstille 25,7 1002,9 88 -
03:20 3,1 1,5   vindstille 25,7 1002,9 89 -
03:25 3,2 1,4 4,8 VNV 19,3 1002,9 88 -
03:30 3,2 1,4   vindstille 20,9 1002,9 88 -
03:35 3,2 1,4 17,7 VNV 20,9 1002,9 88 -
03:40 3,3 1,7 9,7 Vest 20,9 1002,9 89 -
03:45 3,3 1,7   vindstille 20,9 1003,3 89 -
03:50 3,3 1,7 8,0 VNV 20,9 1003,3 89 -
03:55 3,3 1,7   vindstille 17,7 1003,3 89 -
04:00 3,3 1,7 8,0 VNV 14,5 1003,6 89 -
04:05 3,4 1,8 9,7 VNV 14,5 1003,6 89 -
04:10 3,5 1,9   vindstille 22,5 1003,9 89 -
04:15 3,6 2,0 20,9 NV 22,5 1003,6 89 -
04:20 3,7 1,9 1,6 VNV 24,1 1003,9 88 -
04:25 3,7 1,9 17,7 Vest 27,4 1003,9 88 -
04:30 3,8 2,0 9,7 Vest 27,4 1003,9 88 -
04:35 3,8 2,0 12,9 VNV 24,1 1004,3 88 -
04:40 3,8 2,0   vindstille 25,7 1004,3 88 -
04:45 3,8 1,8   vindstille 25,7 1004,3 87 -
04:50 3,8 1,8   vindstille 25,7 1004,3 87 -
04:55 3,8 1,8 1,6 Vest 22,5 1004,3 87 -
05:00 3,8 1,8 12,9 VNV 20,9 1004,3 87 -
05:05 3,9 1,9 12,9 VNV 20,9 1004,3 87 -
05:10 4,0 2,0 4,8 Vest 22,5 1004,6 87 -
05:15 4,0 2,0 1,6 VNV 24,1 1004,6 87 -
05:20 4,1 2,1 11,3 Vest 24,1 1004,6 87 -
05:25 4,3 2,5 30,6 NNV 24,1 1005,0 88 -
05:30 2,7 0,6   vindstille 22,5 1005,0 86 -
05:35 2,2 0,4 3,2 VNV 40,2 1005,0 88 0,30
05:40 2,1 0,5   vindstille 40,2 1005,0 89 0,30
05:45 2,2 0,6   vindstille 30,6 1005,0 89 0,30
05:50 2,3 0,8 11,3 VNV 27,4 1005,0 90 0,50
05:55 2,3 0,8   vindstille 27,4 1005,0 90 0,50
06:00 2,4 0,9 14,5 Vest 27,4 1005,0 90 0,50
06:05 2,6 1,1   vindstille 24,1 1005,0 90 0,50
06:10 2,4 0,9 1,6 VNV 24,1 1005,0 90 0,50
06:15 2,4 0,9   vindstille 22,5 1005,3 90 0,50
06:20 2,5 1,0 1,6 VNV 19,3 1005,3 90 0,50
06:25 2,6 1,1   vindstille 19,3 1005,3 90 0,50
06:30 2,7 1,2   vindstille 16,1 1005,3 90 0,30
06:35 2,7 1,2   vindstille 16,1 1005,6 90 0,30
06:40 2,8 1,3   vindstille 16,1 1005,6 90 0,30
06:45 3,1 1,6 1,6 VNV 17,7 1005,6 90 0,30
06:50 3,5 2,0 12,9 VNV 17,7 1005,6 90 -
06:55 3,7 2,1   vindstille 22,5 1005,6 89 -
07:00 3,7 1,9 4,8 VNV 22,5 1005,6 88 -
07:05 3,7 1,7   vindstille 22,5 1005,6 87 -
07:10 3,7 1,7   vindstille 17,7 1005,6 87 -
07:15 3,6 1,6   vindstille 16,1 1006,0 87 -
07:20 3,5 1,5   vindstille 14,5 1006,0 87 -
Daglig Sum for fredag Feb 28 2020
Klokken Temp. ( °C ) Dew pt. ( °C ) Vind fra ( km/h ) fra Vindstød ( km/h ) Lufttryk ( hPa ) Humid.( % ) Rainrate ( cm )
Høj4,3 2,5 30,6 VNV ( 172/301 ) 40,2 1006,0 92 0,50
Gennemsnitlig3,0 1,4 3,4 vindstille #57/89 16,0 1003,4 89 0,80
Lav2,1 0,4 -   0,0 1000,6 86 -
Daglig Tabular details for fredag Feb 28 2020
Klokken Temp. ( °C ) Dew pt. ( °C ) Vind fra ( km/h ) fra Vindstød ( km/h ) Lufttryk ( hPa ) Humid.( % ) Rainrate ( cm )
00:00 3,1 1,9   vindstille 12,9 1000,6 92 0,50
00:05 3,1 1,8   vindstille 14,5 1000,6 91 0,50
00:10 3,1 1,8   vindstille 14,5 1000,9 91 0,30
00:15 3,1 1,8   vindstille 11,3 1000,9 91 0,30
00:20 3,0 1,7 12,9 VNV   1001,2 91 0,30
00:25 3,0 1,7   vindstille 16,1 1001,2 91 0,30
00:30 3,0 1,7   vindstille 16,1 1001,2 91 0,30
00:35 2,9 1,6   vindstille 16,1 1001,2 91 -
00:40 2,9 1,6   vindstille 11,3 1001,2 91 -
00:45 2,8 1,5   vindstille 11,3 1001,2 91 -
00:50 2,8 1,5   vindstille   1001,6 91 -
00:55 2,7 1,4   vindstille   1001,9 91 -
01:00 2,6 1,3   vindstille   1001,6 91 -
01:05 2,5 1,2   vindstille   1001,9 91 -
01:10 2,4 1,1   vindstille   1001,9 91 -
01:15 2,4 1,1   vindstille   1001,9 91 -
01:20 2,4 1,1   vindstille   1001,9 91 -
01:25 2,3 1,0   vindstille   1001,9 91 -
01:30 2,2 0,9   vindstille   1001,9 91 -
01:35 2,1 0,8   vindstille   1002,3 91 -
01:40 2,1 0,8   vindstille   1002,3 91 -
01:45 2,2 0,9   vindstille   1002,3 91 -
01:50 2,3 1,0   vindstille   1002,3 91 -
01:55 2,4 1,1   vindstille   1002,3 91 -
02:00 2,6 1,3   vindstille   1002,3 91 -
02:05 2,6 1,3   vindstille 8,0 1002,3 91 -
02:10 2,5 1,0   vindstille 8,0 1002,3 90 -
02:15 2,4 0,9   vindstille 8,0 1002,6 90 -
02:20 2,4 0,9   vindstille   1002,6 90 -
02:25 2,4 0,9   vindstille   1002,6 90 -
02:30 2,7 1,2   vindstille 3,2 1002,6 90 -
02:35 3,0 1,5 6,4 VNV 3,2 1002,6 90 -
02:40 3,1 1,5   vindstille 14,5 1002,9 89 -
02:45 3,0 1,4 8,0 VNV 17,7 1002,9 89 -
02:50 3,1 1,3   vindstille 17,7 1002,9 88 -
02:55 3,1 1,3 3,2 VNV 20,9 1002,9 88 -
03:00 3,3 1,3 14,5 VNV 20,9 1002,9 87 -
03:05 3,3 1,5 8,0 VSV 20,9 1002,9 88 -
03:10 3,1 1,3   vindstille 25,7 1002,9 88 -
03:15 2,9 1,1   vindstille 25,7 1002,9 88 -
03:20 3,1 1,5   vindstille 25,7 1002,9 89 -
03:25 3,2 1,4 4,8 VNV 19,3 1002,9 88 -
03:30 3,2 1,4   vindstille 20,9 1002,9 88 -
03:35 3,2 1,4 17,7 VNV 20,9 1002,9 88 -
03:40 3,3 1,7 9,7 Vest 20,9 1002,9 89 -
03:45 3,3 1,7   vindstille 20,9 1003,3 89 -
03:50 3,3 1,7 8,0 VNV 20,9 1003,3 89 -
03:55 3,3 1,7   vindstille 17,7 1003,3 89 -
04:00 3,3 1,7 8,0 VNV 14,5 1003,6 89 -
04:05 3,4 1,8 9,7 VNV 14,5 1003,6 89 -
04:10 3,5 1,9   vindstille 22,5 1003,9 89 -
04:15 3,6 2,0 20,9 NV 22,5 1003,6 89 -
04:20 3,7 1,9 1,6 VNV 24,1 1003,9 88 -
04:25 3,7 1,9 17,7 Vest 27,4 1003,9 88 -
04:30 3,8 2,0 9,7 Vest 27,4 1003,9 88 -
04:35 3,8 2,0 12,9 VNV 24,1 1004,3 88 -
04:40 3,8 2,0   vindstille 25,7 1004,3 88 -
04:45 3,8 1,8   vindstille 25,7 1004,3 87 -
04:50 3,8 1,8   vindstille 25,7 1004,3 87 -
04:55 3,8 1,8 1,6 Vest 22,5 1004,3 87 -
05:00 3,8 1,8 12,9 VNV 20,9 1004,3 87 -
05:05 3,9 1,9 12,9 VNV 20,9 1004,3 87 -
05:10 4,0 2,0 4,8 Vest 22,5 1004,6 87 -
05:15 4,0 2,0 1,6 VNV 24,1 1004,6 87 -
05:20 4,1 2,1 11,3 Vest 24,1 1004,6 87 -
05:25 4,3 2,5 30,6 NNV 24,1 1005,0 88 -
05:30 2,7 0,6   vindstille 22,5 1005,0 86 -
05:35 2,2 0,4 3,2 VNV 40,2 1005,0 88 0,30
05:40 2,1 0,5   vindstille 40,2 1005,0 89 0,30
05:45 2,2 0,6   vindstille 30,6 1005,0 89 0,30
05:50 2,3 0,8 11,3 VNV 27,4 1005,0 90 0,50
05:55 2,3 0,8   vindstille 27,4 1005,0 90 0,50
06:00 2,4 0,9 14,5 Vest 27,4 1005,0 90 0,50
06:05 2,6 1,1   vindstille 24,1 1005,0 90 0,50
06:10 2,4 0,9 1,6 VNV 24,1 1005,0 90 0,50
06:15 2,4 0,9   vindstille 22,5 1005,3 90 0,50
06:20 2,5 1,0 1,6 VNV 19,3 1005,3 90 0,50
06:25 2,6 1,1   vindstille 19,3 1005,3 90 0,50
06:30 2,7 1,2   vindstille 16,1 1005,3 90 0,30
06:35 2,7 1,2   vindstille 16,1 1005,6 90 0,30
06:40 2,8 1,3   vindstille 16,1 1005,6 90 0,30
06:45 3,1 1,6 1,6 VNV 17,7 1005,6 90 0,30
06:50 3,5 2,0 12,9 VNV 17,7 1005,6 90 -
06:55 3,7 2,1   vindstille 22,5 1005,6 89 -
07:00 3,7 1,9 4,8 VNV 22,5 1005,6 88 -
07:05 3,7 1,7   vindstille 22,5 1005,6 87 -
07:10 3,7 1,7   vindstille 17,7 1005,6 87 -
07:15 3,6 1,6   vindstille 16,1 1006,0 87 -
07:20 3,5 1,5   vindstille 14,5 1006,0 87 -

Download your copy of this data-set  here

Our weather-data as stored at Weather Underground. Original script by Jim McMurry. Adapted for the template by Leuven-Template.eu

Der anvendes følgende:

Vejrstation
Davis VP2

Vejrprogram
Meteohub

Server
RaspberryPI 3 model B

Davis VP2

Meteohub

RaspberryPI 3 model B